Lake Montezuma, Arizona
Current Conditions -  °F | °C
As of 3:15 PM on Saturday 25 Oct 2014 (Local Time) from KSEZ Reporting Station
Scattered Clouds Scattered Clouds  
Wind Chill: 81°   Ceiling: Unl
Heat Index: 81°   Visibility: 10mi
Dew Point: 41°   Wind: 8mph
Humidity: 24%   Direction: 240°WSW
Pressure: 30.17"   Gusts: NA
Location:  34.64°N, 111.8°W
Report Text: KSEZ 252215Z AUTO 24007KT 210V270 10SM SCT080 27/05 A3017 RMK AO2
Loading
Personal Weather Stations






























Interactive Weather Map
Tropical Storm Tracking
New forecast layout! Learn more

10-Day Weather Forecast

Advertisements
Track Severe Weather on mobile